sensor_id;sensor_type;location;lat;lon;timestamp;P1;durP1;ratioP1;P2;durP2;ratioP2
22030;SDS011;11179;52.106;21.024;2022-12-10T00:00:22;124.33;;;55.20;;
22030;SDS011;11179;52.106;21.024;2022-12-10T00:02:47;131.50;;;58.37;;
22030;SDS011;11179;52.106;21.024;2022-12-10T00:05:12;128.50;;;55.27;;
22030;SDS011;11179;52.106;21.024;2022-12-10T00:07:38;122.40;;;57.37;;
22030;SDS011;11179;52.106;21.024;2022-12-10T00:10:03;132.93;;;58.73;;
22030;SDS011;11179;52.106;21.024;2022-12-10T00:12:29;125.53;;;55.30;;
22030;SDS011;11179;52.106;21.024;2022-12-10T00:14:54;118.07;;;53.20;;
22030;SDS011;11179;52.106;21.024;2022-12-10T00:17:19;122.53;;;53.53;;
22030;SDS011;11179;52.106;21.024;2022-12-10T00:19:45;123.80;;;55.30;;
22030;SDS011;11179;52.106;21.024;2022-12-10T00:22:10;116.73;;;54.83;;
22030;SDS011;11179;52.106;21.024;2022-12-10T00:24:35;111.97;;;47.70;;
22030;SDS011;11179;52.106;21.024;2022-12-10T00:27:01;119.70;;;53.67;;
22030;SDS011;11179;52.106;21.024;2022-12-10T00:29:26;120.00;;;54.83;;
22030;SDS011;11179;52.106;21.024;2022-12-10T00:31:52;115.20;;;52.00;;
22030;SDS011;11179;52.106;21.024;2022-12-10T00:34:17;127.13;;;54.73;;
22030;SDS011;11179;52.106;21.024;2022-12-10T00:36:43;128.40;;;54.97;;
22030;SDS011;11179;52.106;21.024;2022-12-10T00:39:12;123.65;;;55.47;;
22030;SDS011;11179;52.106;21.024;2022-12-10T00:41:39;125.38;;;54.90;;
22030;SDS011;11179;52.106;21.024;2022-12-10T00:44:04;123.73;;;53.60;;
22030;SDS011;11179;52.106;21.024;2022-12-10T00:46:30;123.70;;;50.10;;
22030;SDS011;11179;52.106;21.024;2022-12-10T00:48:57;132.73;;;54.40;;
22030;SDS011;11179;52.106;21.024;2022-12-10T00:51:24;129.95;;;52.92;;
22030;SDS011;11179;52.106;21.024;2022-12-10T00:53:51;136.15;;;58.10;;
22030;SDS011;11179;52.106;21.024;2022-12-10T00:56:20;123.72;;;53.15;;
22030;SDS011;11179;52.106;21.024;2022-12-10T00:58:50;117.15;;;54.15;;
22030;SDS011;11179;52.106;21.024;2022-12-10T01:01:32;125.83;;;56.50;;
22030;SDS011;11179;52.106;21.024;2022-12-10T01:04:02;126.45;;;53.13;;
22030;SDS011;11179;52.106;21.024;2022-12-10T01:06:30;125.38;;;53.80;;
22030;SDS011;11179;52.106;21.024;2022-12-10T01:08:59;121.22;;;54.15;;
22030;SDS011;11179;52.106;21.024;2022-12-10T01:11:28;119.38;;;50.63;;
22030;SDS011;11179;52.106;21.024;2022-12-10T01:13:55;122.13;;;51.10;;
22030;SDS011;11179;52.106;21.024;2022-12-10T01:16:21;114.87;;;52.43;;
22030;SDS011;11179;52.106;21.024;2022-12-10T01:18:47;122.35;;;51.80;;
22030;SDS011;11179;52.106;21.024;2022-12-10T01:21:14;129.23;;;52.47;;
22030;SDS011;11179;52.106;21.024;2022-12-10T01:23:42;129.45;;;52.20;;
22030;SDS011;11179;52.106;21.024;2022-12-10T01:26:11;128.93;;;53.63;;
22030;SDS011;11179;52.106;21.024;2022-12-10T01:28:38;120.28;;;52.40;;
22030;SDS011;11179;52.106;21.024;2022-12-10T01:31:06;108.47;;;48.33;;
22030;SDS011;11179;52.106;21.024;2022-12-10T01:33:49;109.85;;;49.30;;
22030;SDS011;11179;52.106;21.024;2022-12-10T01:36:21;115.75;;;51.00;;
22030;SDS011;11179;52.106;21.024;2022-12-10T01:38:53;116.20;;;49.00;;
22030;SDS011;11179;52.106;21.024;2022-12-10T01:43:57;114.88;;;49.80;;
22030;SDS011;11179;52.106;21.024;2022-12-10T01:46:29;113.82;;;49.38;;
22030;SDS011;11179;52.106;21.024;2022-12-10T01:49:06;117.55;;;49.63;;
22030;SDS011;11179;52.106;21.024;2022-12-10T01:51:34;110.63;;;49.70;;
22030;SDS011;11179;52.106;21.024;2022-12-10T01:54:03;114.72;;;46.55;;
22030;SDS011;11179;52.106;21.024;2022-12-10T01:56:30;107.78;;;49.65;;
22030;SDS011;11179;52.106;21.024;2022-12-10T01:59:00;108.93;;;46.33;;
22030;SDS011;11179;52.106;21.024;2022-12-10T02:01:28;107.93;;;47.63;;
22030;SDS011;11179;52.106;21.024;2022-12-10T02:03:58;113.13;;;47.85;;
22030;SDS011;11179;52.106;21.024;2022-12-10T02:09:24;108.03;;;46.20;;
22030;SDS011;11179;52.106;21.024;2022-12-10T02:12:05;113.00;;;45.80;;
22030;SDS011;11179;52.106;21.024;2022-12-10T02:17:19;116.28;;;47.55;;
22030;SDS011;11179;52.106;21.024;2022-12-10T02:22:17;106.45;;;45.58;;
22030;SDS011;11179;52.106;21.024;2022-12-10T02:24:46;98.30;;;42.47;;
22030;SDS011;11179;52.106;21.024;2022-12-10T02:27:26;98.22;;;41.58;;
22030;SDS011;11179;52.106;21.024;2022-12-10T02:29:57;97.47;;;43.30;;
22030;SDS011;11179;52.106;21.024;2022-12-10T02:32:25;101.13;;;42.60;;
22030;SDS011;11179;52.106;21.024;2022-12-10T02:34:57;98.30;;;41.17;;
22030;SDS011;11179;52.106;21.024;2022-12-10T02:37:27;95.72;;;41.60;;
22030;SDS011;11179;52.106;21.024;2022-12-10T02:39:57;94.78;;;42.08;;
22030;SDS011;11179;52.106;21.024;2022-12-10T02:42:25;100.85;;;40.83;;
22030;SDS011;11179;52.106;21.024;2022-12-10T02:44:54;92.00;;;40.10;;
22030;SDS011;11179;52.106;21.024;2022-12-10T02:47:21;94.57;;;40.88;;
22030;SDS011;11179;52.106;21.024;2022-12-10T02:49:47;94.57;;;39.10;;
22030;SDS011;11179;52.106;21.024;2022-12-10T02:52:17;90.45;;;39.05;;
22030;SDS011;11179;52.106;21.024;2022-12-10T02:54:45;85.72;;;37.17;;
22030;SDS011;11179;52.106;21.024;2022-12-10T03:08:35;83.03;;;34.83;;
22030;SDS011;11179;52.106;21.024;2022-12-10T03:11:12;82.93;;;35.58;;
22030;SDS011;11179;52.106;21.024;2022-12-10T03:13:46;75.55;;;32.72;;
22030;SDS011;11179;52.106;21.024;2022-12-10T03:16:13;79.65;;;34.53;;
22030;SDS011;11179;52.106;21.024;2022-12-10T03:18:40;84.55;;;33.45;;
22030;SDS011;11179;52.106;21.024;2022-12-10T03:21:06;75.57;;;31.25;;
22030;SDS011;11179;52.106;21.024;2022-12-10T03:23:35;74.93;;;32.10;;
22030;SDS011;11179;52.106;21.024;2022-12-10T03:26:03;77.72;;;34.65;;
22030;SDS011;11179;52.106;21.024;2022-12-10T03:28:31;68.53;;;30.75;;
22030;SDS011;11179;52.106;21.024;2022-12-10T03:31:02;82.00;;;33.35;;
22030;SDS011;11179;52.106;21.024;2022-12-10T03:33:29;71.72;;;32.05;;
22030;SDS011;11179;52.106;21.024;2022-12-10T03:35:56;71.03;;;32.88;;
22030;SDS011;11179;52.106;21.024;2022-12-10T03:38:21;83.32;;;32.08;;
22030;SDS011;11179;52.106;21.024;2022-12-10T03:40:47;65.50;;;30.10;;
22030;SDS011;11179;52.106;21.024;2022-12-10T03:43:13;63.60;;;29.57;;
22030;SDS011;11179;52.106;21.024;2022-12-10T03:45:39;67.43;;;31.57;;
22030;SDS011;11179;52.106;21.024;2022-12-10T03:48:05;68.20;;;30.40;;
22030;SDS011;11179;52.106;21.024;2022-12-10T03:50:30;64.53;;;29.67;;
22030;SDS011;11179;52.106;21.024;2022-12-10T03:52:56;68.53;;;30.10;;
22030;SDS011;11179;52.106;21.024;2022-12-10T03:55:21;68.63;;;29.77;;
22030;SDS011;11179;52.106;21.024;2022-12-10T03:57:46;65.67;;;28.43;;
22030;SDS011;11179;52.106;21.024;2022-12-10T04:00:13;71.57;;;29.33;;
22030;SDS011;11179;52.106;21.024;2022-12-10T04:02:38;67.57;;;29.57;;
22030;SDS011;11179;52.106;21.024;2022-12-10T04:05:04;70.67;;;30.70;;
22030;SDS011;11179;52.106;21.024;2022-12-10T04:07:31;68.65;;;28.75;;
22030;SDS011;11179;52.106;21.024;2022-12-10T04:09:57;63.43;;;26.73;;
22030;SDS011;11179;52.106;21.024;2022-12-10T04:12:22;70.97;;;28.60;;
22030;SDS011;11179;52.106;21.024;2022-12-10T04:14:47;70.00;;;29.60;;
22030;SDS011;11179;52.106;21.024;2022-12-10T04:17:32;68.20;;;28.98;;
22030;SDS011;11179;52.106;21.024;2022-12-10T04:19:58;69.63;;;31.38;;
22030;SDS011;11179;52.106;21.024;2022-12-10T04:22:24;65.77;;;29.40;;
22030;SDS011;11179;52.106;21.024;2022-12-10T04:25:08;60.10;;;26.17;;
22030;SDS011;11179;52.106;21.024;2022-12-10T04:27:55;63.17;;;28.00;;
22030;SDS011;11179;52.106;21.024;2022-12-10T04:30:20;67.90;;;29.53;;
22030;SDS011;11179;52.106;21.024;2022-12-10T04:32:46;56.10;;;25.60;;
22030;SDS011;11179;52.106;21.024;2022-12-10T04:35:11;66.53;;;26.80;;
22030;SDS011;11179;52.106;21.024;2022-12-10T04:37:36;58.67;;;24.50;;
22030;SDS011;11179;52.106;21.024;2022-12-10T04:40:02;62.57;;;27.50;;
22030;SDS011;11179;52.106;21.024;2022-12-10T04:42:29;65.10;;;27.25;;
22030;SDS011;11179;52.106;21.024;2022-12-10T04:44:54;64.13;;;28.13;;
22030;SDS011;11179;52.106;21.024;2022-12-10T04:47:19;65.87;;;27.00;;
22030;SDS011;11179;52.106;21.024;2022-12-10T04:49:45;63.07;;;26.33;;
22030;SDS011;11179;52.106;21.024;2022-12-10T04:52:11;67.73;;;27.03;;
22030;SDS011;11179;52.106;21.024;2022-12-10T04:54:38;71.80;;;27.15;;
22030;SDS011;11179;52.106;21.024;2022-12-10T04:57:04;65.60;;;29.10;;
22030;SDS011;11179;52.106;21.024;2022-12-10T04:59:30;70.97;;;28.55;;
22030;SDS011;11179;52.106;21.024;2022-12-10T05:01:56;71.47;;;29.10;;
22030;SDS011;11179;52.106;21.024;2022-12-10T05:04:21;65.43;;;26.90;;
22030;SDS011;11179;52.106;21.024;2022-12-10T05:06:47;64.17;;;27.13;;
22030;SDS011;11179;52.106;21.024;2022-12-10T05:09:13;71.55;;;29.40;;
22030;SDS011;11179;52.106;21.024;2022-12-10T05:11:39;69.77;;;27.90;;
22030;SDS011;11179;52.106;21.024;2022-12-10T05:14:05;67.20;;;27.27;;
22030;SDS011;11179;52.106;21.024;2022-12-10T05:16:31;58.33;;;26.00;;
22030;SDS011;11179;52.106;21.024;2022-12-10T05:18:58;67.65;;;27.77;;
22030;SDS011;11179;52.106;21.024;2022-12-10T05:21:24;65.80;;;27.30;;
22030;SDS011;11179;52.106;21.024;2022-12-10T05:24:15;60.13;;;25.42;;
22030;SDS011;11179;52.106;21.024;2022-12-10T05:26:41;58.17;;;24.00;;
22030;SDS011;11179;52.106;21.024;2022-12-10T05:29:07;56.20;;;24.63;;
22030;SDS011;11179;52.106;21.024;2022-12-10T05:31:33;64.37;;;26.87;;
22030;SDS011;11179;52.106;21.024;2022-12-10T05:33:58;61.20;;;27.67;;
22030;SDS011;11179;52.106;21.024;2022-12-10T05:36:25;53.53;;;23.20;;
22030;SDS011;11179;52.106;21.024;2022-12-10T05:38:53;61.15;;;26.55;;
22030;SDS011;11179;52.106;21.024;2022-12-10T05:41:21;67.35;;;24.48;;
22030;SDS011;11179;52.106;21.024;2022-12-10T05:43:50;58.72;;;24.83;;
22030;SDS011;11179;52.106;21.024;2022-12-10T05:46:22;58.15;;;25.90;;
22030;SDS011;11179;52.106;21.024;2022-12-10T05:48:49;60.83;;;24.00;;
22030;SDS011;11179;52.106;21.024;2022-12-10T05:51:17;53.78;;;23.05;;
22030;SDS011;11179;52.106;21.024;2022-12-10T05:53:45;54.20;;;23.00;;
22030;SDS011;11179;52.106;21.024;2022-12-10T05:56:12;58.53;;;22.73;;
22030;SDS011;11179;52.106;21.024;2022-12-10T05:58:40;55.53;;;25.13;;
22030;SDS011;11179;52.106;21.024;2022-12-10T06:01:07;51.08;;;21.80;;
22030;SDS011;11179;52.106;21.024;2022-12-10T06:03:35;57.90;;;24.30;;
22030;SDS011;11179;52.106;21.024;2022-12-10T06:06:00;49.40;;;21.57;;
22030;SDS011;11179;52.106;21.024;2022-12-10T06:08:26;57.30;;;23.73;;
22030;SDS011;11179;52.106;21.024;2022-12-10T06:10:51;50.97;;;19.90;;
22030;SDS011;11179;52.106;21.024;2022-12-10T06:13:16;43.23;;;16.17;;
22030;SDS011;11179;52.106;21.024;2022-12-10T06:15:42;52.20;;;21.77;;
22030;SDS011;11179;52.106;21.024;2022-12-10T06:18:08;51.33;;;20.87;;
22030;SDS011;11179;52.106;21.024;2022-12-10T06:20:33;49.80;;;20.53;;
22030;SDS011;11179;52.106;21.024;2022-12-10T06:23:02;52.65;;;21.30;;
22030;SDS011;11179;52.106;21.024;2022-12-10T06:25:27;47.00;;;20.03;;
22030;SDS011;11179;52.106;21.024;2022-12-10T06:27:52;49.13;;;19.23;;
22030;SDS011;11179;52.106;21.024;2022-12-10T06:30:18;51.73;;;21.70;;
22030;SDS011;11179;52.106;21.024;2022-12-10T06:32:43;45.97;;;19.60;;
22030;SDS011;11179;52.106;21.024;2022-12-10T06:35:09;53.57;;;22.37;;
22030;SDS011;11179;52.106;21.024;2022-12-10T06:37:35;50.97;;;20.58;;
22030;SDS011;11179;52.106;21.024;2022-12-10T06:40:01;55.20;;;21.80;;
22030;SDS011;11179;52.106;21.024;2022-12-10T06:42:26;48.97;;;21.33;;
22030;SDS011;11179;52.106;21.024;2022-12-10T06:44:52;45.30;;;20.03;;
22030;SDS011;11179;52.106;21.024;2022-12-10T06:47:17;48.47;;;20.77;;
22030;SDS011;11179;52.106;21.024;2022-12-10T06:49:42;52.57;;;20.40;;
22030;SDS011;11179;52.106;21.024;2022-12-10T06:52:08;57.70;;;21.67;;
22030;SDS011;11179;52.106;21.024;2022-12-10T06:54:33;65.67;;;22.53;;
22030;SDS011;11179;52.106;21.024;2022-12-10T06:56:58;52.40;;;21.87;;
22030;SDS011;11179;52.106;21.024;2022-12-10T06:59:24;55.17;;;23.03;;
22030;SDS011;11179;52.106;21.024;2022-12-10T07:01:50;51.67;;;21.70;;
22030;SDS011;11179;52.106;21.024;2022-12-10T07:04:15;58.27;;;21.93;;
22030;SDS011;11179;52.106;21.024;2022-12-10T07:06:41;52.73;;;21.43;;
22030;SDS011;11179;52.106;21.024;2022-12-10T07:09:06;62.57;;;23.53;;
22030;SDS011;11179;52.106;21.024;2022-12-10T07:11:32;62.43;;;23.83;;
22030;SDS011;11179;52.106;21.024;2022-12-10T07:13:58;65.33;;;24.57;;
22030;SDS011;11179;52.106;21.024;2022-12-10T07:16:24;55.42;;;21.35;;
22030;SDS011;11179;52.106;21.024;2022-12-10T07:18:51;55.42;;;22.60;;
22030;SDS011;11179;52.106;21.024;2022-12-10T07:21:28;57.97;;;22.60;;
22030;SDS011;11179;52.106;21.024;2022-12-10T07:23:57;55.65;;;20.45;;
22030;SDS011;11179;52.106;21.024;2022-12-10T07:26:25;53.17;;;22.23;;
22030;SDS011;11179;52.106;21.024;2022-12-10T07:28:50;51.08;;;20.98;;
22030;SDS011;11179;52.106;21.024;2022-12-10T07:31:16;57.43;;;21.53;;
22030;SDS011;11179;52.106;21.024;2022-12-10T07:33:41;56.07;;;23.50;;
22030;SDS011;11179;52.106;21.024;2022-12-10T07:36:08;57.67;;;23.53;;
22030;SDS011;11179;52.106;21.024;2022-12-10T07:38:35;56.80;;;21.05;;
22030;SDS011;11179;52.106;21.024;2022-12-10T07:41:04;62.73;;;22.67;;
22030;SDS011;11179;52.106;21.024;2022-12-10T07:43:32;58.20;;;21.73;;
22030;SDS011;11179;52.106;21.024;2022-12-10T07:46:02;68.82;;;24.30;;
22030;SDS011;11179;52.106;21.024;2022-12-10T07:48:29;64.13;;;23.10;;
22030;SDS011;11179;52.106;21.024;2022-12-10T07:50:55;61.43;;;23.97;;
22030;SDS011;11179;52.106;21.024;2022-12-10T07:53:22;62.92;;;24.42;;
22030;SDS011;11179;52.106;21.024;2022-12-10T07:55:47;63.10;;;23.50;;
22030;SDS011;11179;52.106;21.024;2022-12-10T07:58:13;67.30;;;22.87;;
22030;SDS011;11179;52.106;21.024;2022-12-10T08:00:38;73.83;;;24.03;;
22030;SDS011;11179;52.106;21.024;2022-12-10T08:03:03;68.23;;;25.20;;
22030;SDS011;11179;52.106;21.024;2022-12-10T08:05:28;67.93;;;25.10;;
22030;SDS011;11179;52.106;21.024;2022-12-10T08:07:54;67.20;;;24.20;;
22030;SDS011;11179;52.106;21.024;2022-12-10T08:10:19;68.43;;;25.40;;
22030;SDS011;11179;52.106;21.024;2022-12-10T08:12:44;68.20;;;23.10;;
22030;SDS011;11179;52.106;21.024;2022-12-10T08:15:10;64.10;;;24.77;;
22030;SDS011;11179;52.106;21.024;2022-12-10T08:17:35;69.73;;;25.50;;
22030;SDS011;11179;52.106;21.024;2022-12-10T08:20:00;54.27;;;21.00;;
22030;SDS011;11179;52.106;21.024;2022-12-10T08:22:26;68.57;;;23.70;;
22030;SDS011;11179;52.106;21.024;2022-12-10T08:24:51;65.53;;;25.77;;
22030;SDS011;11179;52.106;21.024;2022-12-10T08:27:16;81.63;;;26.47;;
22030;SDS011;11179;52.106;21.024;2022-12-10T08:29:42;73.93;;;24.90;;
22030;SDS011;11179;52.106;21.024;2022-12-10T08:32:07;65.30;;;23.20;;
22030;SDS011;11179;52.106;21.024;2022-12-10T08:34:32;75.47;;;25.50;;
22030;SDS011;11179;52.106;21.024;2022-12-10T08:36:58;71.53;;;23.37;;
22030;SDS011;11179;52.106;21.024;2022-12-10T08:39:23;62.73;;;23.40;;
22030;SDS011;11179;52.106;21.024;2022-12-10T08:41:49;66.97;;;23.60;;
22030;SDS011;11179;52.106;21.024;2022-12-10T08:44:14;63.53;;;24.07;;
22030;SDS011;11179;52.106;21.024;2022-12-10T08:46:39;67.13;;;23.23;;
22030;SDS011;11179;52.106;21.024;2022-12-10T08:49:05;57.23;;;20.97;;
22030;SDS011;11179;52.106;21.024;2022-12-10T08:51:32;70.22;;;24.17;;
22030;SDS011;11179;52.106;21.024;2022-12-10T08:53:57;60.17;;;23.77;;
22030;SDS011;11179;52.106;21.024;2022-12-10T08:56:23;61.07;;;21.17;;
22030;SDS011;11179;52.106;21.024;2022-12-10T08:58:48;53.40;;;20.07;;
22030;SDS011;11179;52.106;21.024;2022-12-10T09:01:15;69.60;;;23.27;;
22030;SDS011;11179;52.106;21.024;2022-12-10T09:03:42;62.03;;;21.70;;
22030;SDS011;11179;52.106;21.024;2022-12-10T09:06:10;53.43;;;20.30;;
22030;SDS011;11179;52.106;21.024;2022-12-10T09:08:38;71.75;;;22.65;;
22030;SDS011;11179;52.106;21.024;2022-12-10T09:11:04;57.03;;;22.70;;
22030;SDS011;11179;52.106;21.024;2022-12-10T09:13:31;63.25;;;23.13;;
22030;SDS011;11179;52.106;21.024;2022-12-10T09:15:56;63.50;;;20.87;;
22030;SDS011;11179;52.106;21.024;2022-12-10T09:18:21;66.30;;;23.23;;
22030;SDS011;11179;52.106;21.024;2022-12-10T09:20:47;61.77;;;23.17;;
22030;SDS011;11179;52.106;21.024;2022-12-10T09:23:12;64.30;;;22.40;;
22030;SDS011;11179;52.106;21.024;2022-12-10T09:25:38;64.63;;;23.30;;
22030;SDS011;11179;52.106;21.024;2022-12-10T09:28:03;55.97;;;21.47;;
22030;SDS011;11179;52.106;21.024;2022-12-10T09:30:28;59.40;;;21.07;;
22030;SDS011;11179;52.106;21.024;2022-12-10T09:32:54;63.17;;;25.17;;
22030;SDS011;11179;52.106;21.024;2022-12-10T09:35:19;67.30;;;22.40;;
22030;SDS011;11179;52.106;21.024;2022-12-10T09:37:45;58.60;;;22.17;;
22030;SDS011;11179;52.106;21.024;2022-12-10T09:40:22;58.53;;;21.93;;
22030;SDS011;11179;52.106;21.024;2022-12-10T09:43:21;63.00;;;24.08;;
22030;SDS011;11179;52.106;21.024;2022-12-10T09:48:22;68.97;;;25.80;;
22030;SDS011;11179;52.106;21.024;2022-12-10T09:53:35;64.45;;;24.55;;
22030;SDS011;11179;52.106;21.024;2022-12-10T09:56:03;66.63;;;24.75;;
22030;SDS011;11179;52.106;21.024;2022-12-10T09:58:30;64.20;;;22.17;;
22030;SDS011;11179;52.106;21.024;2022-12-10T10:00:59;74.43;;;26.00;;
22030;SDS011;11179;52.106;21.024;2022-12-10T10:03:27;67.72;;;26.08;;
22030;SDS011;11179;52.106;21.024;2022-12-10T10:06:02;67.18;;;23.55;;
22030;SDS011;11179;52.106;21.024;2022-12-10T10:08:39;62.13;;;22.52;;
22030;SDS011;11179;52.106;21.024;2022-12-10T10:11:11;68.45;;;23.67;;
22030;SDS011;11179;52.106;21.024;2022-12-10T10:13:42;61.45;;;23.90;;
22030;SDS011;11179;52.106;21.024;2022-12-10T10:16:20;69.20;;;22.17;;
22030;SDS011;11179;52.106;21.024;2022-12-10T10:18:51;60.35;;;23.27;;
22030;SDS011;11179;52.106;21.024;2022-12-10T10:21:22;60.17;;;23.77;;
22030;SDS011;11179;52.106;21.024;2022-12-10T10:23:50;60.03;;;23.33;;
22030;SDS011;11179;52.106;21.024;2022-12-10T10:26:16;58.07;;;22.47;;
22030;SDS011;11179;52.106;21.024;2022-12-10T10:28:42;64.33;;;23.00;;
22030;SDS011;11179;52.106;21.024;2022-12-10T10:31:23;61.65;;;23.10;;
22030;SDS011;11179;52.106;21.024;2022-12-10T10:33:52;58.85;;;23.45;;
22030;SDS011;11179;52.106;21.024;2022-12-10T10:36:22;69.15;;;23.00;;
22030;SDS011;11179;52.106;21.024;2022-12-10T10:38:50;60.00;;;22.58;;
22030;SDS011;11179;52.106;21.024;2022-12-10T10:41:15;59.07;;;22.00;;
22030;SDS011;11179;52.106;21.024;2022-12-10T10:43:41;64.40;;;25.57;;
22030;SDS011;11179;52.106;21.024;2022-12-10T10:48:40;61.08;;;20.77;;
22030;SDS011;11179;52.106;21.024;2022-12-10T10:51:07;62.87;;;22.60;;
22030;SDS011;11179;52.106;21.024;2022-12-10T10:53:40;69.88;;;24.35;;
22030;SDS011;11179;52.106;21.024;2022-12-10T10:56:12;60.75;;;23.10;;
22030;SDS011;11179;52.106;21.024;2022-12-10T10:59:28;63.95;;;23.95;;
22030;SDS011;11179;52.106;21.024;2022-12-10T11:01:48;61.55;;;24.27;;
22030;SDS011;11179;52.106;21.024;2022-12-10T11:04:17;71.22;;;26.05;;
22030;SDS011;11179;52.106;21.024;2022-12-10T11:06:48;60.90;;;22.88;;
22030;SDS011;11179;52.106;21.024;2022-12-10T11:09:20;52.15;;;21.42;;
22030;SDS011;11179;52.106;21.024;2022-12-10T11:11:52;56.38;;;21.77;;
22030;SDS011;11179;52.106;21.024;2022-12-10T11:19:36;53.08;;;19.92;;
22030;SDS011;11179;52.106;21.024;2022-12-10T11:22:17;53.03;;;20.65;;
22030;SDS011;11179;52.106;21.024;2022-12-10T11:24:55;50.15;;;20.35;;
22030;SDS011;11179;52.106;21.024;2022-12-10T11:30:09;47.73;;;20.27;;
22030;SDS011;11179;52.106;21.024;2022-12-10T11:35:39;47.90;;;19.70;;
22030;SDS011;11179;52.106;21.024;2022-12-10T11:38:29;53.20;;;20.52;;
22030;SDS011;11179;52.106;21.024;2022-12-10T11:41:11;51.78;;;19.50;;
22030;SDS011;11179;52.106;21.024;2022-12-10T11:49:57;52.97;;;21.63;;
22030;SDS011;11179;52.106;21.024;2022-12-10T12:01:39;55.05;;;20.00;;
22030;SDS011;11179;52.106;21.024;2022-12-10T12:04:20;48.30;;;17.27;;
22030;SDS011;11179;52.106;21.024;2022-12-10T12:15:28;49.97;;;19.48;;
22030;SDS011;11179;52.106;21.024;2022-12-10T12:17:56;44.75;;;19.00;;
22030;SDS011;11179;52.106;21.024;2022-12-10T12:20:31;46.03;;;18.95;;
22030;SDS011;11179;52.106;21.024;2022-12-10T12:23:02;57.35;;;21.08;;
22030;SDS011;11179;52.106;21.024;2022-12-10T12:25:35;45.67;;;17.88;;
22030;SDS011;11179;52.106;21.024;2022-12-10T12:30:47;48.67;;;18.55;;
22030;SDS011;11179;52.106;21.024;2022-12-10T12:33:20;51.17;;;19.73;;
22030;SDS011;11179;52.106;21.024;2022-12-10T12:36:02;42.58;;;17.73;;
22030;SDS011;11179;52.106;21.024;2022-12-10T12:38:45;46.65;;;17.15;;
22030;SDS011;11179;52.106;21.024;2022-12-10T12:41:25;47.42;;;20.40;;
22030;SDS011;11179;52.106;21.024;2022-12-10T12:43:55;50.22;;;19.65;;
22030;SDS011;11179;52.106;21.024;2022-12-10T12:46:26;55.95;;;20.23;;
22030;SDS011;11179;52.106;21.024;2022-12-10T12:51:45;58.28;;;23.33;;
22030;SDS011;11179;52.106;21.024;2022-12-10T12:54:15;54.80;;;21.77;;
22030;SDS011;11179;52.106;21.024;2022-12-10T13:04:54;71.78;;;26.77;;
22030;SDS011;11179;52.106;21.024;2022-12-10T13:09:46;76.30;;;26.67;;
22030;SDS011;11179;52.106;21.024;2022-12-10T13:13:22;74.50;;;26.35;;
22030;SDS011;11179;52.106;21.024;2022-12-10T13:15:33;84.18;;;26.67;;
22030;SDS011;11179;52.106;21.024;2022-12-10T13:22:55;64.50;;;23.87;;
22030;SDS011;11179;52.106;21.024;2022-12-10T13:25:40;62.17;;;21.83;;
22030;SDS011;11179;52.106;21.024;2022-12-10T13:39:10;67.30;;;25.92;;
22030;SDS011;11179;52.106;21.024;2022-12-10T13:41:41;64.63;;;25.38;;
22030;SDS011;11179;52.106;21.024;2022-12-10T13:44:46;53.88;;;21.48;;
22030;SDS011;11179;52.106;21.024;2022-12-10T13:47:27;63.25;;;25.77;;
22030;SDS011;11179;52.106;21.024;2022-12-10T13:50:19;80.18;;;29.60;;
22030;SDS011;11179;52.106;21.024;2022-12-10T13:59:05;402.48;;;130.35;;
22030;SDS011;11179;52.106;21.024;2022-12-10T14:06:46;82.85;;;33.25;;
22030;SDS011;11179;52.106;21.024;2022-12-10T14:09:19;78.10;;;28.33;;
22030;SDS011;11179;52.106;21.024;2022-12-10T14:11:51;69.22;;;26.27;;
22030;SDS011;11179;52.106;21.024;2022-12-10T14:14:30;68.60;;;25.50;;
22030;SDS011;11179;52.106;21.024;2022-12-10T14:16:59;81.10;;;28.38;;
22030;SDS011;11179;52.106;21.024;2022-12-10T14:19:30;65.07;;;25.65;;
22030;SDS011;11179;52.106;21.024;2022-12-10T14:21:55;72.13;;;27.37;;
22030;SDS011;11179;52.106;21.024;2022-12-10T14:24:30;123.18;;;47.13;;
22030;SDS011;11179;52.106;21.024;2022-12-10T14:27:14;113.88;;;42.65;;
22030;SDS011;11179;52.106;21.024;2022-12-10T14:29:48;74.00;;;28.48;;
22030;SDS011;11179;52.106;21.024;2022-12-10T14:32:20;85.18;;;30.70;;
22030;SDS011;11179;52.106;21.024;2022-12-10T14:34:51;77.78;;;28.02;;
22030;SDS011;11179;52.106;21.024;2022-12-10T14:37:22;76.13;;;30.45;;
22030;SDS011;11179;52.106;21.024;2022-12-10T14:39:51;71.65;;;27.05;;
22030;SDS011;11179;52.106;21.024;2022-12-10T14:42:17;77.50;;;30.83;;
22030;SDS011;11179;52.106;21.024;2022-12-10T14:44:43;76.23;;;30.17;;
22030;SDS011;11179;52.106;21.024;2022-12-10T14:47:18;77.90;;;29.58;;
22030;SDS011;11179;52.106;21.024;2022-12-10T14:49:45;64.60;;;27.83;;
22030;SDS011;11179;52.106;21.024;2022-12-10T14:52:17;66.32;;;25.92;;
22030;SDS011;11179;52.106;21.024;2022-12-10T14:54:45;69.10;;;28.08;;
22030;SDS011;11179;52.106;21.024;2022-12-10T14:57:18;66.13;;;26.20;;
22030;SDS011;11179;52.106;21.024;2022-12-10T15:00:11;69.90;;;26.30;;
22030;SDS011;11179;52.106;21.024;2022-12-10T15:02:51;65.53;;;26.83;;
22030;SDS011;11179;52.106;21.024;2022-12-10T15:05:38;74.55;;;28.95;;
22030;SDS011;11179;52.106;21.024;2022-12-10T15:08:06;57.90;;;24.85;;
22030;SDS011;11179;52.106;21.024;2022-12-10T15:10:39;58.97;;;26.98;;
22030;SDS011;11179;52.106;21.024;2022-12-10T15:13:08;60.90;;;29.27;;
22030;SDS011;11179;52.106;21.024;2022-12-10T15:15:44;61.22;;;25.65;;
22030;SDS011;11179;52.106;21.024;2022-12-10T15:18:18;64.05;;;27.50;;
22030;SDS011;11179;52.106;21.024;2022-12-10T15:20:51;60.55;;;25.98;;
22030;SDS011;11179;52.106;21.024;2022-12-10T15:28:37;60.83;;;28.13;;
22030;SDS011;11179;52.106;21.024;2022-12-10T15:36:31;58.65;;;25.80;;
22030;SDS011;11179;52.106;21.024;2022-12-10T15:38:57;52.53;;;22.58;;
22030;SDS011;11179;52.106;21.024;2022-12-10T15:44:17;59.65;;;28.20;;
22030;SDS011;11179;52.106;21.024;2022-12-10T15:49:55;49.35;;;22.63;;
22030;SDS011;11179;52.106;21.024;2022-12-10T15:52:22;59.17;;;27.90;;
22030;SDS011;11179;52.106;21.024;2022-12-10T15:54:50;48.90;;;23.30;;
22030;SDS011;11179;52.106;21.024;2022-12-10T15:57:17;49.90;;;21.10;;
22030;SDS011;11179;52.106;21.024;2022-12-10T15:59:48;52.83;;;23.90;;
22030;SDS011;11179;52.106;21.024;2022-12-10T16:07:47;61.40;;;25.17;;
22030;SDS011;11179;52.106;21.024;2022-12-10T16:10:15;55.10;;;24.85;;
22030;SDS011;11179;52.106;21.024;2022-12-10T16:12:42;55.03;;;25.40;;
22030;SDS011;11179;52.106;21.024;2022-12-10T16:15:18;59.30;;;26.90;;
22030;SDS011;11179;52.106;21.024;2022-12-10T16:17:46;50.78;;;26.02;;
22030;SDS011;11179;52.106;21.024;2022-12-10T16:22:54;67.03;;;27.90;;
22030;SDS011;11179;52.106;21.024;2022-12-10T16:25:21;123.78;;;50.58;;
22030;SDS011;11179;52.106;21.024;2022-12-10T16:27:47;104.28;;;49.95;;
22030;SDS011;11179;52.106;21.024;2022-12-10T16:30:14;73.23;;;34.20;;